Time;durP1;ratioP1;P1;durP2;ratioP2;P2;SDS_P1;SDS_P2;PMS_P1;PMS_P2;Temp;Humidity;BMP_temperature;BMP_pressure;BME280_temperature;BME280_humidity;BME280_pressure;Samples;Min_cycle;Max_cycle;Signal;HPM_P1;HPM_P2
2023/12/27 00:02:40;;;;;;;8.33;2.03;;;;;;;;;;10326652;28;20221;-68
2023/12/27 00:07:40;;;;;;;6.93;1.80;;;;;;;;;;10326656;28;20198;-68
2023/12/27 00:12:40;;;;;;;4.37;1.73;;;;;;;;;;10350472;23;20363;-69
2023/12/27 00:17:41;;;;;;;7.83;1.80;;;;;;;;;;10362284;28;20186;-69
2023/12/27 00:22:41;;;;;;;6.17;1.80;;;;;;;;;;10367164;28;20683;-70
2023/12/27 00:27:41;;;;;;;17.83;3.20;;;;;;;;;;10366942;28;20679;-69
2023/12/27 00:32:41;;;;;;;5.97;2.73;;;;;;;;;;10361696;28;20315;-69
2023/12/27 00:37:42;;;;;;;7.30;2.13;;;;;;;;;;10366540;28;20189;-68
2023/12/27 00:42:43;;;;;;;6.30;2.30;;;;;;;;;;10373198;28;20211;-69
2023/12/27 00:47:44;;;;;;;5.63;2.20;;;;;;;;;;10373907;28;20181;-68
2023/12/27 00:52:44;;;;;;;4.43;2.17;;;;;;;;;;10369969;28;20244;-68
2023/12/27 00:57:45;;;;;;;7.40;2.43;;;;;;;;;;10373678;28;20690;-69
2023/12/27 01:02:45;;;;;;;4.77;2.20;;;;;;;;;;10373197;28;20205;-69
2023/12/27 01:07:45;;;;;;;7.50;2.40;;;;;;;;;;10373109;28;20197;-69
2023/12/27 01:12:46;;;;;;;4.37;2.10;;;;;;;;;;10367544;28;20221;-69
2023/12/27 01:17:46;;;;;;;3.73;1.70;;;;;;;;;;10372819;28;20181;-70
2023/12/27 01:22:47;;;;;;;7.23;2.20;;;;;;;;;;10371139;28;20209;-69
2023/12/27 01:27:47;;;;;;;3.43;1.77;;;;;;;;;;10370918;28;20185;-69
2023/12/27 01:32:48;;;;;;;6.03;1.80;;;;;;;;;;10366864;28;20650;-69
2023/12/27 01:37:49;;;;;;;6.27;1.87;;;;;;;;;;10378611;28;20207;-69
2023/12/27 01:42:49;;;;;;;9.97;2.13;;;;;;;;;;10370466;28;20267;-68
2023/12/27 01:47:49;;;;;;;7.67;2.03;;;;;;;;;;10366129;28;20186;-68
2023/12/27 01:52:49;;;;;;;6.17;2.07;;;;;;;;;;10370091;28;20217;-68
2023/12/27 01:57:49;;;;;;;6.60;2.10;;;;;;;;;;10369629;28;20198;-68
2023/12/27 02:02:50;;;;;;;6.20;1.73;;;;;;;;;;10369120;28;20255;-68
2023/12/27 02:07:50;;;;;;;4.20;1.70;;;;;;;;;;10366918;28;20193;-69
2023/12/27 02:12:50;;;;;;;7.63;2.40;;;;;;;;;;10370195;28;20308;-69
2023/12/27 02:17:50;;;;;;;10.77;2.20;;;;;;;;;;10370319;28;20622;-68
2023/12/27 02:22:52;;;;;;;6.13;2.00;;;;;;;;;;10368656;28;20295;-68
2023/12/27 02:27:52;;;;;;;6.90;2.10;;;;;;;;;;10366302;28;20264;-69
2023/12/27 02:32:52;;;;;;;7.40;2.40;;;;;;;;;;10368368;28;20221;-68
2023/12/27 02:37:52;;;;;;;3.77;2.10;;;;;;;;;;10369547;28;21042;-69
2023/12/27 02:42:52;;;;;;;6.33;2.10;;;;;;;;;;10368144;28;20224;-68
2023/12/27 02:47:53;;;;;;;10.07;2.43;;;;;;;;;;10365316;28;20217;-69
2023/12/27 02:52:54;;;;;;;9.03;3.07;;;;;;;;;;10369165;28;20303;-69
2023/12/27 02:57:54;;;;;;;7.77;3.10;;;;;;;;;;10367461;28;20634;-68
2023/12/27 03:02:54;;;;;;;6.90;3.23;;;;;;;;;;10368772;28;20213;-68
2023/12/27 03:07:54;;;;;;;11.87;3.23;;;;;;;;;;10364577;28;20259;-69
2023/12/27 03:12:55;;;;;;;9.13;2.80;;;;;;;;;;10368396;28;20233;-69
2023/12/27 03:17:56;;;;;;;7.53;3.03;;;;;;;;;;10367169;28;20192;-69
2023/12/27 03:22:56;;;;;;;7.20;2.97;;;;;;;;;;10363868;28;20215;-69
2023/12/27 03:27:56;;;;;;;9.90;2.70;;;;;;;;;;10367730;28;20448;-68
2023/12/27 03:32:56;;;;;;;13.57;2.70;;;;;;;;;;10366075;28;20216;-69
2023/12/27 03:37:57;;;;;;;10.20;2.67;;;;;;;;;;10367685;28;20675;-69
2023/12/27 03:42:57;;;;;;;8.23;2.53;;;;;;;;;;10362517;28;20232;-69
2023/12/27 03:47:57;;;;;;;9.53;2.27;;;;;;;;;;10366418;28;20201;-69
2023/12/27 03:52:58;;;;;;;6.77;2.57;;;;;;;;;;10367512;28;20220;-69
2023/12/27 03:57:59;;;;;;;8.63;2.30;;;;;;;;;;10367542;28;20200;-69
2023/12/27 04:02:59;;;;;;;7.45;2.40;;;;;;;;;;10362404;28;20490;-69
2023/12/27 04:07:59;;;;;;;6.87;2.20;;;;;;;;;;10367455;28;20695;-69
2023/12/27 04:12:59;;;;;;;5.40;2.17;;;;;;;;;;10365694;28;20229;-69
2023/12/27 04:17:59;;;;;;;10.27;2.43;;;;;;;;;;10374618;28;20189;-68
2023/12/27 04:23:00;;;;;;;6.17;2.30;;;;;;;;;;10371056;28;20456;-69
2023/12/27 04:28:00;;;;;;;7.07;2.43;;;;;;;;;;10373188;28;20177;-68
2023/12/27 04:33:00;;;;;;;5.17;2.10;;;;;;;;;;10373103;28;20224;-69
2023/12/27 04:38:00;;;;;;;5.87;1.87;;;;;;;;;;10374028;28;20194;-69
2023/12/27 04:43:01;;;;;;;8.87;2.57;;;;;;;;;;10369654;28;20467;-69
2023/12/27 04:48:01;;;;;;;7.33;2.10;;;;;;;;;;10373866;28;20193;-68
2023/12/27 04:53:01;;;;;;;6.00;1.80;;;;;;;;;;10373429;28;20602;-68
2023/12/27 04:58:01;;;;;;;5.30;2.20;;;;;;;;;;10368894;28;20245;-68
2023/12/27 05:03:02;;;;;;;6.15;2.00;;;;;;;;;;10372770;28;20240;-69
2023/12/27 05:08:03;;;;;;;6.33;1.53;;;;;;;;;;10371974;28;20277;-68
2023/12/27 05:13:03;;;;;;;5.07;1.80;;;;;;;;;;10372266;28;20229;-69
2023/12/27 05:18:03;;;;;;;9.43;1.97;;;;;;;;;;10366637;28;20190;-69
2023/12/27 05:23:03;;;;;;;3.87;1.60;;;;;;;;;;10372319;28;20205;-69
2023/12/27 05:28:04;;;;;;;6.53;1.70;;;;;;;;;;10371911;28;20471;-69
2023/12/27 05:33:04;;;;;;;3.27;1.60;;;;;;;;;;10372094;28;20600;-68
2023/12/27 05:38:04;;;;;;;7.53;1.70;;;;;;;;;;10368394;28;20268;-68
2023/12/27 05:43:04;;;;;;;7.23;2.27;;;;;;;;;;10371748;28;20587;-69
2023/12/27 05:48:05;;;;;;;8.07;1.77;;;;;;;;;;10371408;28;20244;-68
2023/12/27 05:53:05;;;;;;;5.33;1.80;;;;;;;;;;10371124;28;20224;-68
2023/12/27 05:58:05;;;;;;;9.50;1.87;;;;;;;;;;10367696;28;20187;-69
2023/12/27 06:03:05;;;;;;;8.17;1.70;;;;;;;;;;10370982;28;20605;-68
2023/12/27 06:08:05;;;;;;;6.83;1.90;;;;;;;;;;10370643;28;20269;-69
2023/12/27 06:13:05;;;;;;;4.07;1.53;;;;;;;;;;10395703;23;20331;-68
2023/12/27 06:18:05;;;;;;;12.23;2.20;;;;;;;;;;10406807;28;20242;-67
2023/12/27 06:23:06;;;;;;;5.30;1.83;;;;;;;;;;10408663;28;20603;-68
2023/12/27 06:28:06;;;;;;;5.03;1.50;;;;;;;;;;10387299;28;20196;-68
2023/12/27 06:33:06;;;;;;;11.43;2.20;;;;;;;;;;10382746;28;20209;-68
2023/12/27 06:38:06;;;;;;;6.30;1.83;;;;;;;;;;10375828;28;20193;-68
2023/12/27 06:43:07;;;;;;;11.17;2.23;;;;;;;;;;10375831;28;20703;-68
2023/12/27 06:48:07;;;;;;;4.07;2.30;;;;;;;;;;10376578;28;20448;-68
2023/12/27 06:53:07;;;;;;;5.67;2.10;;;;;;;;;;10381533;28;20228;-68
2023/12/27 06:58:07;;;;;;;9.23;2.77;;;;;;;;;;10375553;28;20227;-68
2023/12/27 07:03:07;;;;;;;6.00;2.60;;;;;;;;;;10375656;28;20219;-68
2023/12/27 07:08:07;;;;;;;15.47;2.97;;;;;;;;;;10375325;28;20189;-68
2023/12/27 07:13:08;;;;;;;4.10;1.83;;;;;;;;;;10383502;28;20726;-68
2023/12/27 07:18:08;;;;;;;11.30;3.33;;;;;;;;;;10385565;28;20562;-68
2023/12/27 07:23:10;;;;;;;7.90;2.10;;;;;;;;;;10385567;28;20222;-68
2023/12/27 07:28:10;;;;;;;18.80;9.30;;;;;;;;;;10384518;28;20193;-68
2023/12/27 07:33:12;;;;;;;36.70;19.60;;;;;;;;;;10379238;28;20722;-68
2023/12/27 07:38:12;;;;;;;12.03;5.73;;;;;;;;;;10374145;28;20243;-68
2023/12/27 07:43:13;;;;;;;9.67;2.33;;;;;;;;;;10374923;28;20274;-68
2023/12/27 07:48:13;;;;;;;12.37;8.80;;;;;;;;;;10370432;28;20548;-68
2023/12/27 07:53:14;;;;;;;7.13;3.23;;;;;;;;;;10389598;28;20228;-69
2023/12/27 07:58:14;;;;;;;9.70;3.23;;;;;;;;;;10391066;28;20693;-68
2023/12/27 08:03:14;;;;;;;4.63;3.03;;;;;;;;;;10380326;28;20221;-68
2023/12/27 08:08:14;;;;;;;9.17;3.43;;;;;;;;;;10382986;28;20308;-68
2023/12/27 08:13:14;;;;;;;9.07;3.87;;;;;;;;;;10386401;28;20247;-68
2023/12/27 08:18:15;;;;;;;14.03;4.23;;;;;;;;;;10383394;28;20193;-68
2023/12/27 08:23:18;;;;;;;9.03;3.53;;;;;;;;;;10393755;28;20226;-69
2023/12/27 08:28:18;;;;;;;5.13;2.47;;;;;;;;;;10389139;28;20667;-68
2023/12/27 08:33:18;;;;;;;5.33;1.80;;;;;;;;;;10384774;28;20303;-69
2023/12/27 08:38:20;;;;;;;5.80;2.40;;;;;;;;;;10387058;28;20299;-69
2023/12/27 08:43:20;;;;;;;7.77;2.97;;;;;;;;;;10377711;28;20243;-69
2023/12/27 08:48:20;;;;;;;49.73;19.67;;;;;;;;;;10377341;28;20197;-69
2023/12/27 08:53:20;;;;;;;38.73;19.27;;;;;;;;;;10376719;28;20478;-69
2023/12/27 08:58:20;;;;;;;8.47;4.63;;;;;;;;;;10377032;28;20186;-68
2023/12/27 09:03:21;;;;;;;20.57;10.60;;;;;;;;;;10376674;28;20694;-68
2023/12/27 09:08:21;;;;;;;18.67;9.77;;;;;;;;;;10389446;28;20232;-68
2023/12/27 09:13:21;;;;;;;7.73;4.50;;;;;;;;;;10390194;28;20253;-68
2023/12/27 09:18:21;;;;;;;12.60;3.30;;;;;;;;;;10390436;28;20185;-68
2023/12/27 09:23:21;;;;;;;18.97;9.17;;;;;;;;;;10388059;28;20275;-68
2023/12/27 09:28:25;;;;;;;12.20;5.33;;;;;;;;;;10379408;28;20220;-67
2023/12/27 09:33:25;;;;;;;11.57;5.40;;;;;;;;;;10378927;28;20213;-68
2023/12/27 09:38:25;;;;;;;9.30;3.70;;;;;;;;;;10378607;28;20200;-69
2023/12/27 09:43:26;;;;;;;7.60;3.90;;;;;;;;;;10383021;28;20457;-68
2023/12/27 09:48:27;;;;;;;7.10;3.00;;;;;;;;;;10388910;28;20217;-69
2023/12/27 09:53:27;;;;;;;11.37;3.67;;;;;;;;;;10388861;28;20299;-69
2023/12/27 09:58:31;;;;;;;9.17;4.43;;;;;;;;;;10388673;28;20216;-69
2023/12/27 10:03:33;;;;;;;8.10;3.83;;;;;;;;;;10381743;28;20220;-70
2023/12/27 10:08:33;;;;;;;8.23;3.10;;;;;;;;;;10378913;28;20202;-70
2023/12/27 10:13:34;;;;;;;9.53;3.43;;;;;;;;;;10377072;28;20240;-70
2023/12/27 10:18:34;;;;;;;6.07;2.80;;;;;;;;;;10378507;28;20240;-70
2023/12/27 10:23:35;;;;;;;10.03;3.53;;;;;;;;;;10387062;28;20967;-69
2023/12/27 10:28:35;;;;;;;9.23;2.30;;;;;;;;;;10387742;28;20204;-70
2023/12/27 10:33:39;;;;;;;11.23;5.00;;;;;;;;;;10387420;28;20719;-69
2023/12/27 10:38:40;;;;;;;12.83;2.70;;;;;;;;;;10385100;28;20200;-70
2023/12/27 10:43:40;;;;;;;4.57;2.07;;;;;;;;;;10377566;28;20211;-70
2023/12/27 10:48:40;;;;;;;5.83;3.03;;;;;;;;;;10377326;28;20201;-70
2023/12/27 10:53:43;;;;;;;12.17;5.50;;;;;;;;;;10376962;28;20220;-69
2023/12/27 10:58:45;;;;;;;10.13;4.03;;;;;;;;;;10381377;28;20201;-70
2023/12/27 11:03:47;;;;;;;4.38;2.10;;;;;;;;;;10386897;28;20278;-71
2023/12/27 11:08:48;;;;;;;5.80;2.13;;;;;;;;;;10385590;28;20715;-70
2023/12/27 11:13:49;;;;;;;4.17;1.73;;;;;;;;;;10380759;28;20333;-70
2023/12/27 11:18:50;;;;;;;11.37;1.90;;;;;;;;;;10382747;28;20197;-70
2023/12/27 11:23:51;;;;;;;6.30;1.83;;;;;;;;;;10385585;28;20299;-70
2023/12/27 11:28:51;;;;;;;7.27;2.30;;;;;;;;;;10385448;28;20285;-70
2023/12/27 11:33:52;;;;;;;5.60;1.90;;;;;;;;;;10385731;28;20300;-70
2023/12/27 11:38:52;;;;;;;8.00;2.20;;;;;;;;;;10376170;28;20191;-69
2023/12/27 11:43:55;;;;;;;8.07;2.63;;;;;;;;;;10376005;28;20217;-70
2023/12/27 11:48:55;;;;;;;5.77;1.60;;;;;;;;;;10385310;28;20192;-70
2023/12/27 11:53:56;;;;;;;6.70;2.77;;;;;;;;;;10384894;28;20227;-71
2023/12/27 11:58:56;;;;;;;7.17;2.27;;;;;;;;;;10374455;28;20611;-70
2023/12/27 12:03:59;;;;;;;5.07;2.17;;;;;;;;;;10375306;28;20758;-71
2023/12/27 12:09:00;;;;;;;5.37;2.00;;;;;;;;;;10375694;28;20231;-71
2023/12/27 12:14:00;;;;;;;5.83;2.37;;;;;;;;;;10378060;28;20268;-70
2023/12/27 12:19:02;;;;;;;9.70;2.17;;;;;;;;;;10384852;28;20180;-69
2023/12/27 12:24:09;;;;;;;9.27;2.40;;;;;;;;;;10384763;28;20212;-70
2023/12/27 12:29:09;;;;;;;3.83;1.60;;;;;;;;;;10374915;28;20197;-69
2023/12/27 12:34:09;;;;;;;8.30;2.30;;;;;;;;;;10378831;28;20595;-69
2023/12/27 12:39:13;;;;;;;3.27;1.67;;;;;;;;;;10391750;28;20199;-69
2023/12/27 12:44:14;;;;;;;7.20;2.17;;;;;;;;;;10391221;28;20209;-69
2023/12/27 12:49:14;;;;;;;5.90;1.97;;;;;;;;;;10391486;28;20201;-68
2023/12/27 12:54:15;;;;;;;11.47;5.90;;;;;;;;;;10385459;28;20232;-67
2023/12/27 12:59:16;;;;;;;7.70;1.73;;;;;;;;;;10381779;28;20188;-68
2023/12/27 13:04:16;;;;;;;8.17;2.30;;;;;;;;;;10381598;28;20299;-68
2023/12/27 13:09:17;;;;;;;5.07;2.17;;;;;;;;;;10382434;28;20279;-68
2023/12/27 13:14:17;;;;;;;10.17;2.83;;;;;;;;;;10389358;28;20723;-67
2023/12/27 13:19:18;;;;;;;5.93;2.03;;;;;;;;;;10390551;28;20186;-68
2023/12/27 13:24:18;;;;;;;8.67;2.80;;;;;;;;;;10390448;28;20221;-68
2023/12/27 13:29:18;;;;;;;16.23;2.97;;;;;;;;;;10389669;28;20189;-68
2023/12/27 13:34:18;;;;;;;7.33;2.70;;;;;;;;;;10380574;28;20295;-68
2023/12/27 13:39:18;;;;;;;12.30;3.00;;;;;;;;;;10386788;28;20193;-68
2023/12/27 13:44:19;;;;;;;6.93;2.23;;;;;;;;;;10389200;28;20212;-68
2023/12/27 13:49:19;;;;;;;13.73;2.90;;;;;;;;;;10387097;28;20692;-69
2023/12/27 13:54:19;;;;;;;6.17;2.90;;;;;;;;;;10383781;28;20213;-68
2023/12/27 13:59:19;;;;;;;7.40;2.77;;;;;;;;;;10388556;28;20204;-68
2023/12/27 14:04:20;;;;;;;8.47;3.10;;;;;;;;;;10388654;28;20539;-68
2023/12/27 14:09:20;;;;;;;24.57;9.80;;;;;;;;;;10385129;28;20197;-68
2023/12/27 14:14:20;;;;;;;9.13;2.77;;;;;;;;;;10380368;28;20251;-67
2023/12/27 14:19:20;;;;;;;5.73;2.67;;;;;;;;;;10382519;28;20672;-67
2023/12/27 14:24:20;;;;;;;9.63;3.83;;;;;;;;;;10380028;28;20213;-68
2023/12/27 14:29:20;;;;;;;11.17;5.63;;;;;;;;;;10382645;28;20189;-68
2023/12/27 14:34:20;;;;;;;5.30;2.07;;;;;;;;;;10378017;28;20228;-68
2023/12/27 14:39:21;;;;;;;11.80;4.63;;;;;;;;;;10381372;28;20185;-67
2023/12/27 14:44:21;;;;;;;5.77;3.03;;;;;;;;;;10385407;28;20209;-68
2023/12/27 14:49:21;;;;;;;12.00;4.70;;;;;;;;;;10378520;28;20569;-68
2023/12/27 14:54:21;;;;;;;9.10;4.43;;;;;;;;;;10377087;28;20242;-68
2023/12/27 14:59:22;;;;;;;12.00;5.23;;;;;;;;;;10380547;28;20193;-68
2023/12/27 15:04:26;;;;;;;26.60;13.63;;;;;;;;;;10383463;23;20238;-70
2023/12/27 15:09:26;;;;;;;12.47;4.57;;;;;;;;;;10322546;28;20202;-69
2023/12/27 15:14:27;;;;;;;13.87;5.23;;;;;;;;;;10325043;28;20669;-69
2023/12/27 15:19:27;;;;;;;10.67;3.80;;;;;;;;;;10324372;28;20194;-71
2023/12/27 15:24:27;;;;;;;14.57;5.63;;;;;;;;;;10320367;28;20223;-70
2023/12/27 15:29:27;;;;;;;11.93;5.13;;;;;;;;;;10326622;28;20202;-70
2023/12/27 15:34:27;;;;;;;8.53;4.00;;;;;;;;;;10330738;28;20575;-70
2023/12/27 15:39:28;;;;;;;12.40;4.20;;;;;;;;;;10325332;28;20217;-70
2023/12/27 15:44:28;;;;;;;9.77;3.90;;;;;;;;;;10316820;28;20251;-70
2023/12/27 15:49:28;;;;;;;7.10;2.97;;;;;;;;;;10323949;28;20186;-70
2023/12/27 15:54:29;;;;;;;15.93;3.50;;;;;;;;;;10322542;28;20217;-70
2023/12/27 15:59:32;;;;;;;10.67;3.50;;;;;;;;;;10323043;28;20190;-70
2023/12/27 16:04:32;;;;;;;8.87;2.90;;;;;;;;;;10316178;28;20241;-70
2023/12/27 16:09:33;;;;;;;11.90;3.50;;;;;;;;;;10325975;28;20607;-70
2023/12/27 16:14:35;;;;;;;5.10;2.67;;;;;;;;;;10326884;28;20221;-69
2023/12/27 16:19:37;;;;;;;5.80;3.03;;;;;;;;;;10333789;28;20190;-69
2023/12/27 16:24:38;;;;;;;6.33;2.80;;;;;;;;;;10329355;28;20300;-69
2023/12/27 16:29:43;;;;;;;8.20;3.70;;;;;;;;;;10333470;28;20300;-70
2023/12/27 16:34:43;;;;;;;6.40;2.97;;;;;;;;;;10333602;28;20577;-69
2023/12/27 16:39:43;;;;;;;4.97;2.97;;;;;;;;;;10332957;28;20182;-70
2023/12/27 16:44:43;;;;;;;5.97;2.70;;;;;;;;;;10331621;28;20218;-69
2023/12/27 16:49:45;;;;;;;11.53;2.73;;;;;;;;;;10333220;28;20668;-68
2023/12/27 16:54:46;;;;;;;8.40;2.90;;;;;;;;;;10326541;28;20276;-68
2023/12/27 16:59:46;;;;;;;14.77;3.13;;;;;;;;;;10318729;28;20194;-68
2023/12/27 17:04:49;;;;;;;8.33;2.50;;;;;;;;;;10327721;28;20238;-68
2023/12/27 17:09:49;;;;;;;11.03;2.23;;;;;;;;;;10331381;28;20511;-68
2023/12/27 17:14:50;;;;;;;4.40;2.10;;;;;;;;;;10329925;28;20213;-68
2023/12/27 17:19:51;;;;;;;13.17;5.67;;;;;;;;;;10328009;28;20193;-68
2023/12/27 17:24:51;;;;;;;7.20;3.30;;;;;;;;;;10323232;28;20206;-68
2023/12/27 17:29:51;;;;;;;4.23;2.70;;;;;;;;;;10319992;28;20190;-68
2023/12/27 17:34:52;;;;;;;4.37;2.47;;;;;;;;;;10323905;28;20232;-68
2023/12/27 17:39:52;;;;;;;8.17;3.03;;;;;;;;;;10329643;28;20216;-69
2023/12/27 17:44:52;;;;;;;4.70;2.40;;;;;;;;;;10330289;28;20264;-68
2023/12/27 17:49:55;;;;;;;7.97;3.17;;;;;;;;;;10326897;28;20194;-68
2023/12/27 17:54:56;;;;;;;31.97;15.63;;;;;;;;;;10329719;28;20957;-69
2023/12/27 17:59:58;;;;;;;6.03;3.13;;;;;;;;;;10327843;28;20193;-69
2023/12/27 18:04:58;;;;;;;8.87;3.30;;;;;;;;;;10327607;28;20696;-69
2023/12/27 18:09:58;;;;;;;7.43;3.53;;;;;;;;;;10329081;28;20210;-69
2023/12/27 18:14:59;;;;;;;6.17;3.00;;;;;;;;;;10327410;28;20206;-69
2023/12/27 18:20:00;;;;;;;10.97;2.73;;;;;;;;;;10327921;28;20251;-69
2023/12/27 18:25:00;;;;;;;6.83;3.23;;;;;;;;;;10328583;28;20216;-69
2023/12/27 18:30:00;;;;;;;11.43;3.70;;;;;;;;;;10328385;28;20668;-69
2023/12/27 18:35:00;;;;;;;8.67;4.27;;;;;;;;;;10319787;28;20248;-69
2023/12/27 18:40:01;;;;;;;8.00;3.73;;;;;;;;;;10326285;28;20193;-69
2023/12/27 18:45:01;;;;;;;11.97;4.07;;;;;;;;;;10327510;28;20209;-69
2023/12/27 18:50:03;;;;;;;7.07;2.70;;;;;;;;;;10327760;28;20452;-68
2023/12/27 18:55:04;;;;;;;4.47;2.77;;;;;;;;;;10326581;28;20224;-69
2023/12/27 19:00:08;;;;;;;10.63;3.17;;;;;;;;;;10314060;28;20190;-69
2023/12/27 19:05:08;;;;;;;6.20;2.07;;;;;;;;;;10313538;28;20241;-69
2023/12/27 19:10:09;;;;;;;6.33;2.77;;;;;;;;;;10313111;28;20194;-69
2023/12/27 19:15:11;;;;;;;5.43;2.20;;;;;;;;;;10317308;28;20233;-69
2023/12/27 19:20:11;;;;;;;4.77;2.40;;;;;;;;;;10325715;28;20206;-69
2023/12/27 19:25:11;;;;;;;14.90;3.10;;;;;;;;;;10317812;28;20218;-69
2023/12/27 19:30:12;;;;;;;9.20;3.33;;;;;;;;;;10318378;28;20255;-69
2023/12/27 19:35:15;;;;;;;5.70;2.30;;;;;;;;;;10317564;28;20700;-69
2023/12/27 19:40:15;;;;;;;3.73;1.93;;;;;;;;;;10321140;28;20447;-69
2023/12/27 19:45:15;;;;;;;15.60;2.45;;;;;;;;;;10332582;28;20213;-69
2023/12/27 19:50:15;;;;;;;5.40;2.33;;;;;;;;;;10338752;28;20196;-69
2023/12/27 19:55:16;;;;;;;4.43;2.20;;;;;;;;;;10340190;28;20210;-69
2023/12/27 20:00:16;;;;;;;7.57;3.47;;;;;;;;;;10340123;28;20551;-69
2023/12/27 20:05:16;;;;;;;6.63;2.53;;;;;;;;;;10340121;28;20238;-69
2023/12/27 20:10:16;;;;;;;5.00;2.00;;;;;;;;;;10332756;28;20193;-69
2023/12/27 20:15:18;;;;;;;6.20;2.63;;;;;;;;;;10340505;28;20223;-69
2023/12/27 20:20:18;;;;;;;7.73;2.50;;;;;;;;;;10340079;28;20269;-69
2023/12/27 20:25:18;;;;;;;3.60;2.27;;;;;;;;;;10339806;28;20642;-69
2023/12/27 20:30:18;;;;;;;8.77;2.60;;;;;;;;;;10338094;28;20197;-69
2023/12/27 20:35:19;;;;;;;5.03;2.23;;;;;;;;;;10339676;28;20279;-69
2023/12/27 20:40:19;;;;;;;6.23;2.67;;;;;;;;;;10339513;28;20216;-69
2023/12/27 20:45:19;;;;;;;4.68;2.55;;;;;;;;;;10338946;28;20218;-69
2023/12/27 20:50:22;;;;;;;7.53;2.23;;;;;;;;;;10337864;28;20273;-69
2023/12/27 20:55:23;;;;;;;8.93;3.37;;;;;;;;;;10337097;28;20279;-69
2023/12/27 21:00:23;;;;;;;9.90;3.50;;;;;;;;;;10333237;28;20186;-69
2023/12/27 21:05:23;;;;;;;10.03;3.23;;;;;;;;;;10332258;28;20696;-69
2023/12/27 21:10:23;;;;;;;9.63;3.17;;;;;;;;;;10333013;28;20202;-69
2023/12/27 21:15:23;;;;;;;6.73;2.83;;;;;;;;;;10332331;28;20296;-69
2023/12/27 21:20:23;;;;;;;2.40;1.90;;;;;;;;;;10322412;28;20467;-69
2023/12/27 21:25:24;;;;;;;5.00;1.80;;;;;;;;;;10317035;28;20218;-69
2023/12/27 21:30:24;;;;;;;3.87;2.07;;;;;;;;;;10328932;28;20196;-69
2023/12/27 21:35:24;;;;;;;5.93;2.63;;;;;;;;;;10327535;28;20663;-69
2023/12/27 21:40:24;;;;;;;3.87;2.47;;;;;;;;;;10329101;28;20221;-69
2023/12/27 21:45:25;;;;;;;6.47;2.17;;;;;;;;;;10331528;28;20319;-70
2023/12/27 21:50:25;;;;;;;5.13;2.60;;;;;;;;;;10331092;28;21145;-70
2023/12/27 21:55:25;;;;;;;6.90;2.87;;;;;;;;;;10330666;28;20304;-70
2023/12/27 22:00:25;;;;;;;5.07;2.53;;;;;;;;;;10328703;28;20197;-70
2023/12/27 22:05:25;;;;;;;6.77;2.53;;;;;;;;;;10330780;28;20248;-69
2023/12/27 22:10:26;;;;;;;3.17;2.10;;;;;;;;;;10329428;28;20571;-68
2023/12/27 22:15:26;;;;;;;5.77;2.40;;;;;;;;;;10329988;28;20691;-70
2023/12/27 22:20:26;;;;;;;8.70;2.10;;;;;;;;;;10328291;28;20206;-70
2023/12/27 22:25:26;;;;;;;7.10;2.60;;;;;;;;;;10330052;28;20216;-70
2023/12/27 22:30:26;;;;;;;7.57;2.90;;;;;;;;;;10329947;28;20694;-70
2023/12/27 22:35:26;;;;;;;2.70;1.80;;;;;;;;;;10327380;28;20599;-70
2023/12/27 22:40:27;;;;;;;3.10;2.03;;;;;;;;;;10329242;28;20415;-70
2023/12/27 22:45:27;;;;;;;4.33;2.30;;;;;;;;;;10328935;28;20293;-70
2023/12/27 22:50:27;;;;;;;4.37;2.10;;;;;;;;;;10328295;28;20216;-70
2023/12/27 22:55:28;;;;;;;3.60;2.27;;;;;;;;;;10327007;28;20229;-70
2023/12/27 23:00:28;;;;;;;2.80;2.00;;;;;;;;;;10328302;28;20536;-70
2023/12/27 23:05:29;;;;;;;3.77;2.70;;;;;;;;;;10328290;28;20288;-70
2023/12/27 23:10:29;;;;;;;4.83;2.33;;;;;;;;;;10328210;28;20198;-70
2023/12/27 23:15:29;;;;;;;7.37;2.80;;;;;;;;;;10326017;28;20224;-70
2023/12/27 23:20:29;;;;;;;5.13;2.50;;;;;;;;;;10327493;28;20664;-70
2023/12/27 23:25:30;;;;;;;4.50;2.17;;;;;;;;;;10327426;28;20205;-70
2023/12/27 23:30:30;;;;;;;4.00;2.00;;;;;;;;;;10327636;28;20281;-70
2023/12/27 23:35:30;;;;;;;4.80;2.20;;;;;;;;;;10325471;28;20228;-70
2023/12/27 23:40:30;;;;;;;6.30;2.60;;;;;;;;;;10327379;28;20240;-70
2023/12/27 23:45:30;;;;;;;5.93;2.40;;;;;;;;;;10327162;28;20703;-70
2023/12/27 23:50:30;;;;;;;3.10;1.90;;;;;;;;;;10327142;28;20252;-70
2023/12/27 23:55:30;;;;;;;3.90;1.83;;;;;;;;;;10325281;28;20225;-70
